sensor_id;sensor_type;location;lat;lon;timestamp;pressure;altitude;pressure_sealevel;temperature;humidity
59053;BME280;44843;44.728;10.396;2022-08-21T09:31:35;99993.59;;;27.70;92.56
59053;BME280;44843;44.728;10.396;2022-08-21T09:34:04;99990.69;;;27.65;93.18
59053;BME280;44843;44.728;10.396;2022-08-21T09:36:39;99987.97;;;27.79;95.17
59053;BME280;44843;44.728;10.396;2022-08-21T09:39:07;61389.06;;;-146.16;100.00
59053;BME280;44843;44.728;10.396;2022-08-21T09:41:35;61389.06;;;-146.16;100.00
59053;BME280;44843;44.728;10.396;2022-08-21T09:44:02;61389.06;;;-146.16;100.00
59053;BME280;44843;44.728;10.396;2022-08-21T09:46:27;61389.06;;;-146.16;100.00
59053;BME280;44843;44.728;10.396;2022-08-21T09:49:01;61389.06;;;-146.16;100.00
59053;BME280;44843;44.728;10.396;2022-08-21T09:51:33;61389.06;;;-146.16;100.00
59053;BME280;44843;44.728;10.396;2022-08-21T09:55:03;99987.84;;;28.19;87.22
59053;BME280;44843;44.728;10.396;2022-08-21T09:57:48;99986.72;;;27.94;83.21
59053;BME280;44843;44.728;10.396;2022-08-21T10:00:27;99989.47;;;28.20;81.26
59053;BME280;44843;44.728;10.396;2022-08-21T10:03:07;99986.81;;;28.13;81.09
59053;BME280;44843;44.728;10.396;2022-08-21T10:05:33;99995.06;;;27.53;87.80
59053;BME280;44843;44.728;10.396;2022-08-21T10:08:00;99989.31;;;28.14;86.47
59053;BME280;44843;44.728;10.396;2022-08-21T10:10:28;99990.16;;;28.40;84.79
59053;BME280;44843;44.728;10.396;2022-08-21T10:18:24;99983.84;;;28.66;78.08
59053;BME280;44843;44.728;10.396;2022-08-21T10:21:25;99991.00;;;28.72;75.45
59053;BME280;44843;44.728;10.396;2022-08-21T10:24:11;99989.09;;;28.80;76.68
59053;BME280;44843;44.728;10.396;2022-08-21T10:29:55;99981.72;;;28.43;77.83
59053;BME280;44843;44.728;10.396;2022-08-21T10:32:24;99984.75;;;28.47;78.80
59053;BME280;44843;44.728;10.396;2022-08-21T10:35:14;99972.84;;;28.49;79.18
59053;BME280;44843;44.728;10.396;2022-08-21T10:37:52;99974.81;;;28.86;77.57
59053;BME280;44843;44.728;10.396;2022-08-21T10:40:40;99976.72;;;29.29;74.59
59053;BME280;44843;44.728;10.396;2022-08-21T10:43:21;99970.69;;;29.33;72.72
59053;BME280;44843;44.728;10.396;2022-08-21T10:46:14;99969.94;;;29.45;71.62
59053;BME280;44843;44.728;10.396;2022-08-21T10:49:08;99971.28;;;29.35;71.71
59053;BME280;44843;44.728;10.396;2022-08-21T10:51:41;99975.78;;;29.16;71.00
59053;BME280;44843;44.728;10.396;2022-08-21T10:54:19;99965.59;;;29.25;72.27
59053;BME280;44843;44.728;10.396;2022-08-21T10:56:48;99967.75;;;29.16;73.05
59053;BME280;44843;44.728;10.396;2022-08-21T10:59:31;99960.59;;;29.04;71.93
59053;BME280;44843;44.728;10.396;2022-08-21T11:02:17;99965.88;;;28.92;73.05
59053;BME280;44843;44.728;10.396;2022-08-21T11:05:11;99965.88;;;28.92;73.13
59053;BME280;44843;44.728;10.396;2022-08-21T11:07:57;99962.50;;;28.78;71.18
59053;BME280;44843;44.728;10.396;2022-08-21T11:10:40;99953.66;;;29.21;69.29
59053;BME280;44843;44.728;10.396;2022-08-21T11:13:19;99956.50;;;29.26;69.78
59053;BME280;44843;44.728;10.396;2022-08-21T11:18:41;99942.22;;;29.32;69.16
59053;BME280;44843;44.728;10.396;2022-08-21T11:23:57;99942.28;;;28.50;72.63
59053;BME280;44843;44.728;10.396;2022-08-21T11:26:39;99939.88;;;28.92;70.88
59053;BME280;44843;44.728;10.396;2022-08-21T11:29:29;99943.38;;;29.18;69.23
59053;BME280;44843;44.728;10.396;2022-08-21T11:45:39;99934.31;;;29.74;62.29
59053;BME280;44843;44.728;10.396;2022-08-21T11:48:40;99929.63;;;30.00;63.36
59053;BME280;44843;44.728;10.396;2022-08-21T11:51:14;99932.38;;;29.93;61.14
59053;BME280;44843;44.728;10.396;2022-08-21T11:53:59;99922.22;;;29.95;61.35
59053;BME280;44843;44.728;10.396;2022-08-21T11:56:35;99914.34;;;30.12;60.13
59053;BME280;44843;44.728;10.396;2022-08-21T11:59:06;99911.25;;;29.97;59.56
59053;BME280;44843;44.728;10.396;2022-08-21T12:01:36;99919.59;;;29.77;58.05
59053;BME280;44843;44.728;10.396;2022-08-21T12:04:06;99915.78;;;29.66;57.51
59053;BME280;44843;44.728;10.396;2022-08-21T12:06:40;99916.69;;;29.42;55.67
59053;BME280;44843;44.728;10.396;2022-08-21T12:12:05;99907.22;;;29.39;58.32
59053;BME280;44843;44.728;10.396;2022-08-21T12:17:08;99895.13;;;29.48;61.87
59053;BME280;44843;44.728;10.396;2022-08-21T12:19:34;99901.31;;;29.49;61.27
59053;BME280;44843;44.728;10.396;2022-08-21T12:24:48;99889.84;;;29.42;62.10
59053;BME280;44843;44.728;10.396;2022-08-21T12:27:19;99887.75;;;29.44;58.81
59053;BME280;44843;44.728;10.396;2022-08-21T12:29:48;99886.72;;;29.26;60.22
59053;BME280;44843;44.728;10.396;2022-08-21T12:34:46;99874.50;;;29.30;57.76
59053;BME280;44843;44.728;10.396;2022-08-21T12:37:39;99874.69;;;29.47;60.38
59053;BME280;44843;44.728;10.396;2022-08-21T12:42:46;99859.88;;;29.75;59.97
59053;BME280;44843;44.728;10.396;2022-08-21T12:45:30;99854.72;;;29.73;59.23
59053;BME280;44843;44.728;10.396;2022-08-21T12:48:00;99852.50;;;29.70;59.75
59053;BME280;44843;44.728;10.396;2022-08-21T12:50:50;99850.59;;;29.41;57.03
59053;BME280;44843;44.728;10.396;2022-08-21T12:56:12;99848.13;;;29.88;60.58
59053;BME280;44843;44.728;10.396;2022-08-21T12:58:55;99843.69;;;29.93;59.60
59053;BME280;44843;44.728;10.396;2022-08-21T13:01:22;99842.16;;;29.86;59.06
59053;BME280;44843;44.728;10.396;2022-08-21T13:03:51;99842.53;;;29.89;59.33
59053;BME280;44843;44.728;10.396;2022-08-21T13:06:20;99843.56;;;29.76;58.64
59053;BME280;44843;44.728;10.396;2022-08-21T13:08:48;99840.94;;;30.12;57.43
59053;BME280;44843;44.728;10.396;2022-08-21T13:11:20;99838.47;;;30.10;55.11
59053;BME280;44843;44.728;10.396;2022-08-21T13:13:51;99835.63;;;29.82;56.56
59053;BME280;44843;44.728;10.396;2022-08-21T13:16:26;99830.72;;;29.78;58.32
59053;BME280;44843;44.728;10.396;2022-08-21T13:18:59;99824.16;;;29.74;58.14
59053;BME280;44843;44.728;10.396;2022-08-21T13:21:31;99830.13;;;29.88;55.62
59053;BME280;44843;44.728;10.396;2022-08-21T13:24:27;99824.06;;;29.93;56.70
59053;BME280;44843;44.728;10.396;2022-08-21T13:26:54;99815.41;;;29.91;57.71
59053;BME280;44843;44.728;10.396;2022-08-21T13:29:23;99818.94;;;29.91;58.89
59053;BME280;44843;44.728;10.396;2022-08-21T13:31:58;99815.91;;;29.99;57.54
59053;BME280;44843;44.728;10.396;2022-08-21T13:34:29;99816.00;;;29.93;57.94
59053;BME280;44843;44.728;10.396;2022-08-21T13:37:00;99814.72;;;29.95;57.26
59053;BME280;44843;44.728;10.396;2022-08-21T13:39:26;99810.91;;;30.03;56.40
59053;BME280;44843;44.728;10.396;2022-08-21T13:41:55;99811.28;;;30.18;56.49
59053;BME280;44843;44.728;10.396;2022-08-21T13:44:32;99799.34;;;30.03;54.79
59053;BME280;44843;44.728;10.396;2022-08-21T13:47:00;99804.47;;;30.04;55.00
59053;BME280;44843;44.728;10.396;2022-08-21T13:49:41;99797.78;;;29.95;53.99
59053;BME280;44843;44.728;10.396;2022-08-21T13:52:25;99797.25;;;30.05;54.82
59053;BME280;44843;44.728;10.396;2022-08-21T13:54:55;99800.25;;;29.96;55.32
59053;BME280;44843;44.728;10.396;2022-08-21T13:57:30;99798.06;;;30.05;55.40
59053;BME280;44843;44.728;10.396;2022-08-21T14:02:42;99778.50;;;29.86;54.45
59053;BME280;44843;44.728;10.396;2022-08-21T14:05:31;99785.44;;;30.06;54.64
59053;BME280;44843;44.728;10.396;2022-08-21T14:08:23;99773.00;;;29.81;53.05
59053;BME280;44843;44.728;10.396;2022-08-21T14:10:52;99777.09;;;29.95;53.35
59053;BME280;44843;44.728;10.396;2022-08-21T14:16:00;99774.22;;;29.67;53.22
59053;BME280;44843;44.728;10.396;2022-08-21T14:18:26;99775.78;;;29.74;52.94
59053;BME280;44843;44.728;10.396;2022-08-21T14:21:04;99776.22;;;29.71;53.33
59053;BME280;44843;44.728;10.396;2022-08-21T14:23:30;99772.22;;;29.62;53.33
59053;BME280;44843;44.728;10.396;2022-08-21T14:26:02;99769.69;;;29.67;53.65
59053;BME280;44843;44.728;10.396;2022-08-21T14:28:32;99773.56;;;29.71;52.58
59053;BME280;44843;44.728;10.396;2022-08-21T14:31:11;99761.88;;;29.77;52.03
59053;BME280;44843;44.728;10.396;2022-08-21T14:33:37;99759.38;;;29.64;52.42
59053;BME280;44843;44.728;10.396;2022-08-21T14:36:02;99758.78;;;29.62;52.33
59053;BME280;44843;44.728;10.396;2022-08-21T14:38:28;99754.53;;;29.73;52.24
59053;BME280;44843;44.728;10.396;2022-08-21T14:40:57;99750.91;;;29.79;51.77
59053;BME280;44843;44.728;10.396;2022-08-21T14:43:25;99750.81;;;29.86;50.67
59053;BME280;44843;44.728;10.396;2022-08-21T14:45:51;99756.34;;;30.03;51.36
59053;BME280;44843;44.728;10.396;2022-08-21T14:48:17;99752.34;;;30.17;50.65
59053;BME280;44843;44.728;10.396;2022-08-21T14:50:42;99756.22;;;30.21;50.60
59053;BME280;44843;44.728;10.396;2022-08-21T14:53:07;99761.38;;;30.23;51.66
59053;BME280;44843;44.728;10.396;2022-08-21T14:55:33;99751.56;;;30.40;51.15
59053;BME280;44843;44.728;10.396;2022-08-21T14:58:19;99757.38;;;30.25;51.07
59053;BME280;44843;44.728;10.396;2022-08-21T15:00:45;99747.81;;;30.17;51.58
59053;BME280;44843;44.728;10.396;2022-08-21T15:03:11;99748.84;;;30.16;51.19
59053;BME280;44843;44.728;10.396;2022-08-21T15:05:36;99747.69;;;30.24;50.80
59053;BME280;44843;44.728;10.396;2022-08-21T15:08:01;99749.81;;;30.22;50.83
59053;BME280;44843;44.728;10.396;2022-08-21T15:10:30;99750.38;;;30.24;51.22
59053;BME280;44843;44.728;10.396;2022-08-21T15:12:55;99753.06;;;30.24;50.38
59053;BME280;44843;44.728;10.396;2022-08-21T15:15:21;99749.78;;;30.10;49.80
59053;BME280;44843;44.728;10.396;2022-08-21T15:17:46;99745.81;;;30.13;51.17
59053;BME280;44843;44.728;10.396;2022-08-21T15:20:12;99754.81;;;30.18;51.13
59053;BME280;44843;44.728;10.396;2022-08-21T15:22:37;99746.84;;;30.24;51.44
59053;BME280;44843;44.728;10.396;2022-08-21T15:25:03;99751.09;;;30.31;49.61
59053;BME280;44843;44.728;10.396;2022-08-21T15:27:29;99743.63;;;30.33;49.59
59053;BME280;44843;44.728;10.396;2022-08-21T15:29:54;99746.66;;;30.37;50.25
59053;BME280;44843;44.728;10.396;2022-08-21T15:32:21;99741.84;;;30.39;49.57
59053;BME280;44843;44.728;10.396;2022-08-21T15:34:48;99744.66;;;30.32;50.03
59053;BME280;44843;44.728;10.396;2022-08-21T15:37:14;99746.31;;;30.33;49.76
59053;BME280;44843;44.728;10.396;2022-08-21T15:39:39;99738.34;;;30.27;49.41
59053;BME280;44843;44.728;10.396;2022-08-21T15:42:05;99743.16;;;30.48;49.61
59053;BME280;44843;44.728;10.396;2022-08-21T15:44:30;99735.22;;;30.42;49.88
59053;BME280;44843;44.728;10.396;2022-08-21T15:46:56;99734.03;;;30.37;51.00
59053;BME280;44843;44.728;10.396;2022-08-21T15:49:23;99733.41;;;30.24;50.52
59053;BME280;44843;44.728;10.396;2022-08-21T15:51:49;99742.66;;;30.16;50.32
59053;BME280;44843;44.728;10.396;2022-08-21T15:54:14;99734.00;;;30.14;51.13
59053;BME280;44843;44.728;10.396;2022-08-21T15:56:44;99730.75;;;30.00;50.76
59053;BME280;44843;44.728;10.396;2022-08-21T15:59:17;99732.59;;;29.99;50.86
59053;BME280;44843;44.728;10.396;2022-08-21T16:01:44;99725.44;;;29.93;50.69
59053;BME280;44843;44.728;10.396;2022-08-21T16:04:10;99722.78;;;29.93;51.30
59053;BME280;44843;44.728;10.396;2022-08-21T16:06:36;99719.75;;;29.90;51.09
59053;BME280;44843;44.728;10.396;2022-08-21T16:09:02;99721.38;;;29.91;51.10
59053;BME280;44843;44.728;10.396;2022-08-21T16:11:27;99727.34;;;29.81;51.55
59053;BME280;44843;44.728;10.396;2022-08-21T16:13:53;99725.56;;;29.75;52.51
59053;BME280;44843;44.728;10.396;2022-08-21T16:16:22;99724.06;;;29.79;52.98
59053;BME280;44843;44.728;10.396;2022-08-21T16:18:49;99720.31;;;29.80;51.93
59053;BME280;44843;44.728;10.396;2022-08-21T16:21:15;99735.63;;;29.80;51.85
59053;BME280;44843;44.728;10.396;2022-08-21T16:23:41;99720.25;;;29.68;51.14
59053;BME280;44843;44.728;10.396;2022-08-21T16:26:08;99715.81;;;29.62;52.14
59053;BME280;44843;44.728;10.396;2022-08-21T16:28:37;99720.78;;;29.77;51.66
59053;BME280;44843;44.728;10.396;2022-08-21T16:31:04;99718.78;;;29.72;52.14
59053;BME280;44843;44.728;10.396;2022-08-21T16:33:33;99721.78;;;29.64;54.03
59053;BME280;44843;44.728;10.396;2022-08-21T16:35:59;99709.34;;;29.70;53.12
59053;BME280;44843;44.728;10.396;2022-08-21T16:38:26;99714.13;;;29.80;53.05
59053;BME280;44843;44.728;10.396;2022-08-21T16:40:53;99709.00;;;29.90;50.75
59053;BME280;44843;44.728;10.396;2022-08-21T16:43:23;99704.31;;;29.85;51.18
59053;BME280;44843;44.728;10.396;2022-08-21T16:45:50;99708.97;;;29.78;53.23
59053;BME280;44843;44.728;10.396;2022-08-21T16:48:16;99713.06;;;29.69;52.39
59053;BME280;44843;44.728;10.396;2022-08-21T16:50:41;99712.03;;;29.82;50.37
59053;BME280;44843;44.728;10.396;2022-08-21T16:53:06;99713.19;;;29.86;51.51
59053;BME280;44843;44.728;10.396;2022-08-21T16:55:36;99711.41;;;29.68;54.45
59053;BME280;44843;44.728;10.396;2022-08-21T16:58:04;99714.41;;;29.60;55.46
59053;BME280;44843;44.728;10.396;2022-08-21T17:00:33;99700.50;;;29.51;56.44
59053;BME280;44843;44.728;10.396;2022-08-21T17:02:59;99701.41;;;29.45;57.81
59053;BME280;44843;44.728;10.396;2022-08-21T17:05:25;99697.31;;;29.42;57.19
59053;BME280;44843;44.728;10.396;2022-08-21T17:07:50;99695.56;;;29.36;56.28
59053;BME280;44843;44.728;10.396;2022-08-21T17:10:16;99700.09;;;29.35;56.84
59053;BME280;44843;44.728;10.396;2022-08-21T17:12:53;99701.16;;;29.34;58.44
59053;BME280;44843;44.728;10.396;2022-08-21T17:15:38;99699.19;;;29.42;54.77
59053;BME280;44843;44.728;10.396;2022-08-21T17:18:05;99690.00;;;29.61;53.31
59053;BME280;44843;44.728;10.396;2022-08-21T17:20:32;99705.97;;;29.44;52.66
59053;BME280;44843;44.728;10.396;2022-08-21T17:22:57;99695.97;;;29.63;55.20
59053;BME280;44843;44.728;10.396;2022-08-21T17:25:23;99699.00;;;29.67;54.13
59053;BME280;44843;44.728;10.396;2022-08-21T17:27:49;99706.53;;;29.76;52.87
59053;BME280;44843;44.728;10.396;2022-08-21T17:30:16;99701.34;;;29.63;55.36
59053;BME280;44843;44.728;10.396;2022-08-21T17:32:43;99699.69;;;29.50;57.03
59053;BME280;44843;44.728;10.396;2022-08-21T17:35:10;99710.38;;;29.38;57.62
59053;BME280;44843;44.728;10.396;2022-08-21T17:37:36;99703.38;;;29.37;56.18
59053;BME280;44843;44.728;10.396;2022-08-21T17:40:04;99710.16;;;29.10;55.70
59053;BME280;44843;44.728;10.396;2022-08-21T17:42:31;99708.56;;;29.51;54.72
59053;BME280;44843;44.728;10.396;2022-08-21T17:44:57;99703.16;;;29.39;58.23
59053;BME280;44843;44.728;10.396;2022-08-21T17:47:23;99707.44;;;29.28;59.32
59053;BME280;44843;44.728;10.396;2022-08-21T17:49:49;99710.91;;;29.17;61.04
59053;BME280;44843;44.728;10.396;2022-08-21T17:52:14;99712.22;;;29.08;62.46
59053;BME280;44843;44.728;10.396;2022-08-21T17:54:40;99701.81;;;29.00;63.53
59053;BME280;44843;44.728;10.396;2022-08-21T17:57:06;99705.41;;;28.93;65.03
59053;BME280;44843;44.728;10.396;2022-08-21T17:59:33;99705.13;;;28.83;65.23
59053;BME280;44843;44.728;10.396;2022-08-21T18:01:59;99707.66;;;28.78;68.66
59053;BME280;44843;44.728;10.396;2022-08-21T18:04:28;99712.72;;;28.68;72.18
59053;BME280;44843;44.728;10.396;2022-08-21T18:06:54;99710.72;;;28.63;75.74
59053;BME280;44843;44.728;10.396;2022-08-21T18:09:20;99707.38;;;28.49;77.62
59053;BME280;44843;44.728;10.396;2022-08-21T18:11:48;99714.19;;;28.45;80.34
59053;BME280;44843;44.728;10.396;2022-08-21T18:14:14;99712.47;;;28.32;85.52
59053;BME280;44843;44.728;10.396;2022-08-21T18:16:40;99706.97;;;28.27;87.19
59053;BME280;44843;44.728;10.396;2022-08-21T18:19:11;99704.13;;;28.22;88.07
59053;BME280;44843;44.728;10.396;2022-08-21T18:21:39;99708.13;;;28.13;90.82
59053;BME280;44843;44.728;10.396;2022-08-21T18:24:06;99710.22;;;28.11;91.16
59053;BME280;44843;44.728;10.396;2022-08-21T18:26:35;99709.28;;;27.99;91.42
59053;BME280;44843;44.728;10.396;2022-08-21T18:29:04;99710.38;;;27.91;92.21
59053;BME280;44843;44.728;10.396;2022-08-21T18:31:31;99714.78;;;27.79;92.75
59053;BME280;44843;44.728;10.396;2022-08-21T18:34:00;61389.06;;;-146.16;100.00
59053;BME280;44843;44.728;10.396;2022-08-21T18:36:27;61389.06;;;-146.16;100.00
59053;BME280;44843;44.728;10.396;2022-08-21T18:38:53;61389.06;;;-146.16;100.00
59053;BME280;44843;44.728;10.396;2022-08-21T18:41:19;61389.06;;;-146.16;100.00
59053;BME280;44843;44.728;10.396;2022-08-21T18:43:46;61389.06;;;-146.16;100.00
59053;BME280;44843;44.728;10.396;2022-08-21T18:46:12;61389.06;;;-146.16;100.00
59053;BME280;44843;44.728;10.396;2022-08-21T18:48:37;61389.06;;;-146.16;100.00
59053;BME280;44843;44.728;10.396;2022-08-21T18:51:04;61389.06;;;-146.16;100.00
59053;BME280;44843;44.728;10.396;2022-08-21T18:53:30;61389.06;;;-146.16;100.00
59053;BME280;44843;44.728;10.396;2022-08-21T18:55:55;99738.63;;;27.23;nan
59053;BME280;44843;44.728;10.396;2022-08-21T18:58:21;99741.28;;;27.23;nan
59053;BME280;44843;44.728;10.396;2022-08-21T19:00:48;99750.16;;;27.17;nan
59053;BME280;44843;44.728;10.396;2022-08-21T19:03:16;99750.19;;;27.10;nan
59053;BME280;44843;44.728;10.396;2022-08-21T19:05:42;99748.97;;;27.06;nan
59053;BME280;44843;44.728;10.396;2022-08-21T19:08:14;99752.28;;;27.02;nan
59053;BME280;44843;44.728;10.396;2022-08-21T19:10:42;99753.72;;;26.98;nan
59053;BME280;44843;44.728;10.396;2022-08-21T19:13:10;99750.44;;;26.96;nan
59053;BME280;44843;44.728;10.396;2022-08-21T19:15:37;99759.59;;;26.75;nan
59053;BME280;44843;44.728;10.396;2022-08-21T19:18:08;99763.03;;;26.88;nan
59053;BME280;44843;44.728;10.396;2022-08-21T19:20:35;99770.03;;;26.76;nan
59053;BME280;44843;44.728;10.396;2022-08-21T19:23:03;99774.19;;;26.65;nan
59053;BME280;44843;44.728;10.396;2022-08-21T19:25:29;99774.41;;;26.64;nan
59053;BME280;44843;44.728;10.396;2022-08-21T19:27:54;99771.75;;;26.57;nan
59053;BME280;44843;44.728;10.396;2022-08-21T19:30:20;99765.97;;;26.60;nan
59053;BME280;44843;44.728;10.396;2022-08-21T19:32:46;99778.09;;;26.43;nan
59053;BME280;44843;44.728;10.396;2022-08-21T19:35:13;99780.41;;;26.39;nan
59053;BME280;44843;44.728;10.396;2022-08-21T19:37:41;99781.59;;;26.37;nan
59053;BME280;44843;44.728;10.396;2022-08-21T19:40:07;99779.56;;;26.32;nan
59053;BME280;44843;44.728;10.396;2022-08-21T19:42:34;99774.63;;;26.29;nan
59053;BME280;44843;44.728;10.396;2022-08-21T19:45:00;99777.50;;;26.34;nan
59053;BME280;44843;44.728;10.396;2022-08-21T19:47:26;99780.81;;;26.23;nan
59053;BME280;44843;44.728;10.396;2022-08-21T19:49:56;99784.28;;;26.17;nan
59053;BME280;44843;44.728;10.396;2022-08-21T19:52:22;99783.69;;;26.01;nan
59053;BME280;44843;44.728;10.396;2022-08-21T19:54:48;99785.53;;;25.94;nan
59053;BME280;44843;44.728;10.396;2022-08-21T19:57:13;99779.75;;;25.90;nan
59053;BME280;44843;44.728;10.396;2022-08-21T19:59:39;99777.53;;;25.94;nan
59053;BME280;44843;44.728;10.396;2022-08-21T20:02:06;99783.28;;;25.91;nan
59053;BME280;44843;44.728;10.396;2022-08-21T20:04:33;99777.69;;;25.86;nan
59053;BME280;44843;44.728;10.396;2022-08-21T20:06:58;99784.06;;;25.78;nan
59053;BME280;44843;44.728;10.396;2022-08-21T20:09:24;99779.72;;;25.70;nan
59053;BME280;44843;44.728;10.396;2022-08-21T20:11:52;99780.75;;;25.69;nan
59053;BME280;44843;44.728;10.396;2022-08-21T20:14:21;99781.56;;;25.70;nan
59053;BME280;44843;44.728;10.396;2022-08-21T20:16:48;99782.38;;;25.70;nan
59053;BME280;44843;44.728;10.396;2022-08-21T20:19:14;99771.06;;;25.55;nan
59053;BME280;44843;44.728;10.396;2022-08-21T20:21:40;99780.31;;;25.59;nan
59053;BME280;44843;44.728;10.396;2022-08-21T20:24:05;99780.47;;;25.51;nan
59053;BME280;44843;44.728;10.396;2022-08-21T20:26:31;99781.09;;;25.46;nan
59053;BME280;44843;44.728;10.396;2022-08-21T20:28:57;99776.41;;;25.55;nan
59053;BME280;44843;44.728;10.396;2022-08-21T20:31:23;99777.41;;;25.47;nan
59053;BME280;44843;44.728;10.396;2022-08-21T20:33:49;99774.13;;;25.45;nan
59053;BME280;44843;44.728;10.396;2022-08-21T20:36:16;99776.16;;;25.37;nan
59053;BME280;44843;44.728;10.396;2022-08-21T20:38:41;99776.97;;;25.37;nan
59053;BME280;44843;44.728;10.396;2022-08-21T20:41:07;99786.59;;;25.38;nan
59053;BME280;44843;44.728;10.396;2022-08-21T20:43:36;99780.00;;;25.27;nan
59053;BME280;44843;44.728;10.396;2022-08-21T20:46:03;99787.31;;;25.19;nan
59053;BME280;44843;44.728;10.396;2022-08-21T20:48:34;99784.25;;;25.15;nan
59053;BME280;44843;44.728;10.396;2022-08-21T20:51:15;99786.28;;;25.13;nan
59053;BME280;44843;44.728;10.396;2022-08-21T21:05:08;99795.06;;;25.07;nan
59053;BME280;44843;44.728;10.396;2022-08-21T21:10:11;99794.44;;;25.05;nan
59053;BME280;44843;44.728;10.396;2022-08-21T21:12:45;99793.81;;;25.03;nan
59053;BME280;44843;44.728;10.396;2022-08-21T21:15:22;99795.50;;;25.04;nan
59053;BME280;44843;44.728;10.396;2022-08-21T21:17:53;99806.75;;;24.99;nan
59053;BME280;44843;44.728;10.396;2022-08-21T21:20:43;99809.13;;;24.87;nan
59053;BME280;44843;44.728;10.396;2022-08-21T21:23:27;99808.31;;;24.87;nan
59053;BME280;44843;44.728;10.396;2022-08-21T21:25:59;99806.31;;;24.96;nan
59053;BME280;44843;44.728;10.396;2022-08-21T21:28:44;99806.31;;;24.96;nan
59053;BME280;44843;44.728;10.396;2022-08-21T21:31:13;99797.72;;;25.00;nan
59053;BME280;44843;44.728;10.396;2022-08-21T21:33:38;99803.09;;;25.07;nan
59053;BME280;44843;44.728;10.396;2022-08-21T21:36:18;99800.56;;;24.99;nan
59053;BME280;44843;44.728;10.396;2022-08-21T21:39:33;99804.66;;;24.95;nan
59053;BME280;44843;44.728;10.396;2022-08-21T21:41:50;99813.25;;;24.90;nan
59053;BME280;44843;44.728;10.396;2022-08-21T21:47:02;99801.13;;;24.87;nan
59053;BME280;44843;44.728;10.396;2022-08-21T22:01:12;99811.66;;;24.39;nan
59053;BME280;44843;44.728;10.396;2022-08-21T22:06:37;99814.53;;;24.44;nan
59053;BME280;44843;44.728;10.396;2022-08-21T22:09:18;99812.50;;;24.46;nan
59053;BME280;44843;44.728;10.396;2022-08-21T22:12:08;99816.34;;;24.37;nan
59053;BME280;44843;44.728;10.396;2022-08-21T22:14:40;99820.28;;;24.41;nan
59053;BME280;44843;44.728;10.396;2022-08-21T22:17:17;99820.03;;;24.36;nan
59053;BME280;44843;44.728;10.396;2022-08-21T22:19:45;99816.94;;;24.33;nan
59053;BME280;44843;44.728;10.396;2022-08-21T22:22:13;99820.19;;;24.28;nan
59053;BME280;44843;44.728;10.396;2022-08-21T22:24:43;99820.69;;;24.17;nan
59053;BME280;44843;44.728;10.396;2022-08-21T22:27:15;99815.19;;;24.18;nan
59053;BME280;44843;44.728;10.396;2022-08-21T22:29:48;99818.78;;;24.11;nan
59053;BME280;44843;44.728;10.396;2022-08-21T22:32:39;99819.19;;;24.08;nan
59053;BME280;44843;44.728;10.396;2022-08-21T22:35:22;99817.59;;;24.13;nan
59053;BME280;44843;44.728;10.396;2022-08-21T22:37:57;99818.78;;;24.11;nan
59053;BME280;44843;44.728;10.396;2022-08-21T22:40:27;99822.47;;;24.10;nan
59053;BME280;44843;44.728;10.396;2022-08-21T22:43:24;99832.81;;;23.98;nan
59053;BME280;44843;44.728;10.396;2022-08-21T22:48:26;99823.94;;;23.91;nan
59053;BME280;44843;44.728;10.396;2022-08-21T22:51:02;99825.06;;;24.03;nan
59053;BME280;44843;44.728;10.396;2022-08-21T22:53:29;99824.06;;;24.04;nan
59053;BME280;44843;44.728;10.396;2022-08-21T22:56:00;99822.22;;;24.04;nan
59053;BME280;44843;44.728;10.396;2022-08-21T22:58:29;99822.34;;;23.96;nan
59053;BME280;44843;44.728;10.396;2022-08-21T23:03:53;99822.59;;;23.80;nan
59053;BME280;44843;44.728;10.396;2022-08-21T23:06:40;99814.09;;;23.91;nan
59053;BME280;44843;44.728;10.396;2022-08-21T23:09:22;99818.38;;;23.85;nan
59053;BME280;44843;44.728;10.396;2022-08-21T23:11:54;99826.53;;;23.84;nan
59053;BME280;44843;44.728;10.396;2022-08-21T23:14:21;99822.22;;;23.83;nan
59053;BME280;44843;44.728;10.396;2022-08-21T23:17:06;99819.03;;;23.73;nan
59053;BME280;44843;44.728;10.396;2022-08-21T23:24:48;99816.47;;;23.64;nan
59053;BME280;44843;44.728;10.396;2022-08-21T23:30:09;99829.16;;;23.48;nan
59053;BME280;44843;44.728;10.396;2022-08-21T23:35:22;99824.66;;;23.48;nan
59053;BME280;44843;44.728;10.396;2022-08-21T23:38:39;99828.09;;;23.42;nan
59053;BME280;44843;44.728;10.396;2022-08-21T23:41:09;99824.31;;;23.36;nan
59053;BME280;44843;44.728;10.396;2022-08-21T23:44:01;99820.84;;;23.36;nan
